Radar AviationWeather DUATS TFRs Wunderground Accuweather Weather.com

alt : Radar

TAFs

KFDY 211723Z 2118/2218 09011KT P6SM BKN045 OVC250
   FM212000 08010KT P6SM VCTS OVC045CB
   FM212200 07010KT P6SM -SHRA VCTS OVC045CB
   FM220200 07009KT 5SM -SHRA BR SCT025 OVC045
     TEMPO 2204/2208 3SM -SHRA BR BKN025
   FM220800 06009KT P6SM -SHRA OVC025
   FM221200 10007KT 3SM SHRA BR OVC012
   FM221600 11007KT 3SM SHRA BR VCTS OVC008CB
KTOL 211723Z 2118/2218 08012KT P6SM OVC250
   FM220000 08011KT P6SM SCT045 OVC100
   FM220300 07010KT P6SM VCSH SCT025 OVC060
   FM220600 07010KT P6SM -SHRA SCT025 OVC045
   FM221000 07010KT 6SM -SHRA BR OVC025
   FM221200 07010KT 5SM -SHRA BR OVC015
   FM221500 08010G18KT 3SM SHRA BR VCTS OVC008CB
KCLE 211723Z 2118/2224 03010G19KT P6SM BKN250
   FM220400 07008KT P6SM OVC120
   FM221000 10010KT P6SM -SHRA OVC060
   FM221200 11011KT P6SM -SHRA OVC035
   FM221500 12012G20KT 5SM SHRA BR VCTS OVC020CB
   FM221800 13012G20KT 5SM SHRA BR VCTS OVC015CB
   FM222100 13014KT 5SM SHRA BR VCTS OVC012CB
KFWA 211721Z 2118/2218 08006KT P6SM -SHRA OVC025
   FM212100 08011KT 5SM SHRA OVC035
   FM220200 08007KT P6SM VCSH OVC025
   FM220600 08010KT P6SM SHRA OVC015
   FM220900 08010KT P6SM VCSH OVC010
KDTW 211720Z 2118/2224 09012KT P6SM SCT035 BKN250
   FM212200 07010KT P6SM OVC200
   FM220400 06008KT P6SM OVC120
   FM220900 06010KT P6SM OVC100
   FM221500 08012KT P6SM VCSH BKN022 OVC060
   FM221800 09012KT 6SM -RA OVC015
KJXN 211140Z 2112/2212 VRB04KT 3SM BR BKN200
   FM211300 08006KT 5SM BR SCT200
   FM211400 09008KT P6SM BKN250
   FM220100 09009KT P6SM -SHRA BKN060

METARs

KDUH 211715Z AUTO 06009KT 040V100 10SM CLR 23/14 A2985 RMK AO2 T02300140
KJXN 211656Z 07009KT 10SM CLR 23/13 A2987 RMK AO2 SLP110 T02330128
KFWA 211654Z 09012KT 10SM FEW020 OVC024 22/18 A2981 RMK AO2 SLP090 T02170178
KDTW 211653Z 08009KT 10SM BKN250 24/12 A2988 RMK AO2 SLP114 T02440117
KFDY 211653Z AUTO 08013KT 10SM OVC050 26/16 A2982 RMK AO2 SLP089 T02560156
KTDZ 211653Z AUTO 08009KT 10SM CLR 24/13 A2985 RMK AO2 SLP105 T02440128
KTOL 211652Z 06013G17KT 10SM CLR 24/14 A2984 RMK AO2 SLP102 T02440139
KCLE 211651Z 03011KT 10SM BKN250 26/16 A2987 RMK AO2 SLP109 T02610156 $

alt : Satellite

alt : TFRs